sensor_id;sensor_type;location;lat;lon;timestamp;P1;durP1;ratioP1;P2;durP2;ratioP2
12141;SDS011;6134;59.284;18.022;2024-01-16T00:00:36;1.10;;;0.70;;
12141;SDS011;6134;59.284;18.022;2024-01-16T00:03:04;0.50;;;0.40;;
12141;SDS011;6134;59.284;18.022;2024-01-16T00:05:35;0.97;;;0.80;;
12141;SDS011;6134;59.284;18.022;2024-01-16T00:08:03;0.57;;;0.40;;
12141;SDS011;6134;59.284;18.022;2024-01-16T00:10:32;1.17;;;0.70;;
12141;SDS011;6134;59.284;18.022;2024-01-16T00:13:01;0.53;;;0.53;;
12141;SDS011;6134;59.284;18.022;2024-01-16T00:15:30;1.10;;;0.60;;
12141;SDS011;6134;59.284;18.022;2024-01-16T00:17:58;0.93;;;0.82;;
12141;SDS011;6134;59.284;18.022;2024-01-16T00:20:27;0.63;;;0.60;;
12141;SDS011;6134;59.284;18.022;2024-01-16T00:22:57;0.80;;;0.77;;
12141;SDS011;6134;59.284;18.022;2024-01-16T00:25:27;3.53;;;0.83;;
12141;SDS011;6134;59.284;18.022;2024-01-16T00:27:56;1.77;;;0.70;;
12141;SDS011;6134;59.284;18.022;2024-01-16T00:30:25;0.50;;;0.50;;
12141;SDS011;6134;59.284;18.022;2024-01-16T00:32:54;0.77;;;0.77;;
12141;SDS011;6134;59.284;18.022;2024-01-16T00:35:23;0.60;;;0.60;;
12141;SDS011;6134;59.284;18.022;2024-01-16T00:37:52;1.13;;;0.57;;
12141;SDS011;6134;59.284;18.022;2024-01-16T00:40:22;1.38;;;0.80;;
12141;SDS011;6134;59.284;18.022;2024-01-16T00:42:51;0.73;;;0.70;;
12141;SDS011;6134;59.284;18.022;2024-01-16T00:45:20;0.50;;;0.50;;
12141;SDS011;6134;59.284;18.022;2024-01-16T00:47:49;2.20;;;0.80;;
12141;SDS011;6134;59.284;18.022;2024-01-16T00:50:19;0.77;;;0.60;;
12141;SDS011;6134;59.284;18.022;2024-01-16T00:52:49;0.60;;;0.60;;
12141;SDS011;6134;59.284;18.022;2024-01-16T00:55:17;0.50;;;0.50;;
12141;SDS011;6134;59.284;18.022;2024-01-16T00:57:48;0.47;;;0.47;;
12141;SDS011;6134;59.284;18.022;2024-01-16T01:00:16;0.60;;;0.60;;
12141;SDS011;6134;59.284;18.022;2024-01-16T01:02:45;2.27;;;0.60;;
12141;SDS011;6134;59.284;18.022;2024-01-16T01:05:14;0.50;;;0.50;;
12141;SDS011;6134;59.284;18.022;2024-01-16T01:07:43;0.60;;;0.60;;
12141;SDS011;6134;59.284;18.022;2024-01-16T01:10:12;1.00;;;0.60;;
12141;SDS011;6134;59.284;18.022;2024-01-16T01:12:40;1.53;;;0.60;;
12141;SDS011;6134;59.284;18.022;2024-01-16T01:15:10;0.70;;;0.50;;
12141;SDS011;6134;59.284;18.022;2024-01-16T01:17:40;1.08;;;0.65;;
12141;SDS011;6134;59.284;18.022;2024-01-16T01:20:10;0.67;;;0.53;;
12141;SDS011;6134;59.284;18.022;2024-01-16T01:22:39;0.73;;;0.63;;
12141;SDS011;6134;59.284;18.022;2024-01-16T01:25:08;1.80;;;0.50;;
12141;SDS011;6134;59.284;18.022;2024-01-16T01:27:37;0.67;;;0.60;;
12141;SDS011;6134;59.284;18.022;2024-01-16T01:30:07;0.67;;;0.50;;
12141;SDS011;6134;59.284;18.022;2024-01-16T01:32:37;0.50;;;0.50;;
12141;SDS011;6134;59.284;18.022;2024-01-16T01:35:07;0.47;;;0.47;;
12141;SDS011;6134;59.284;18.022;2024-01-16T01:37:35;0.50;;;0.50;;
12141;SDS011;6134;59.284;18.022;2024-01-16T01:40:05;0.73;;;0.60;;
12141;SDS011;6134;59.284;18.022;2024-01-16T01:42:38;0.50;;;0.50;;
12141;SDS011;6134;59.284;18.022;2024-01-16T01:45:07;0.47;;;0.40;;
12141;SDS011;6134;59.284;18.022;2024-01-16T01:47:38;0.43;;;0.43;;
12141;SDS011;6134;59.284;18.022;2024-01-16T01:50:09;0.60;;;0.50;;
12141;SDS011;6134;59.284;18.022;2024-01-16T01:52:38;0.40;;;0.40;;
12141;SDS011;6134;59.284;18.022;2024-01-16T01:55:10;0.40;;;0.40;;
12141;SDS011;6134;59.284;18.022;2024-01-16T01:57:39;0.50;;;0.50;;
12141;SDS011;6134;59.284;18.022;2024-01-16T02:00:10;1.03;;;0.50;;
12141;SDS011;6134;59.284;18.022;2024-01-16T02:02:40;0.30;;;0.30;;
12141;SDS011;6134;59.284;18.022;2024-01-16T02:05:10;0.67;;;0.60;;
12141;SDS011;6134;59.284;18.022;2024-01-16T02:07:40;1.27;;;0.50;;
12141;SDS011;6134;59.284;18.022;2024-01-16T02:10:09;0.53;;;0.50;;
12141;SDS011;6134;59.284;18.022;2024-01-16T02:12:37;1.03;;;0.50;;
12141;SDS011;6134;59.284;18.022;2024-01-16T02:15:06;0.60;;;0.40;;
12141;SDS011;6134;59.284;18.022;2024-01-16T02:17:35;1.10;;;0.40;;
12141;SDS011;6134;59.284;18.022;2024-01-16T02:20:06;3.97;;;0.40;;
12141;SDS011;6134;59.284;18.022;2024-01-16T02:22:35;0.53;;;0.40;;
12141;SDS011;6134;59.284;18.022;2024-01-16T02:25:07;0.40;;;0.40;;
12141;SDS011;6134;59.284;18.022;2024-01-16T02:27:37;0.47;;;0.47;;
12141;SDS011;6134;59.284;18.022;2024-01-16T02:30:06;0.43;;;0.40;;
12141;SDS011;6134;59.284;18.022;2024-01-16T02:32:36;0.83;;;0.60;;
12141;SDS011;6134;59.284;18.022;2024-01-16T02:35:05;0.30;;;0.30;;
12141;SDS011;6134;59.284;18.022;2024-01-16T02:37:34;0.30;;;0.30;;
12141;SDS011;6134;59.284;18.022;2024-01-16T02:40:02;0.60;;;0.50;;
12141;SDS011;6134;59.284;18.022;2024-01-16T02:42:34;0.40;;;0.40;;
12141;SDS011;6134;59.284;18.022;2024-01-16T02:45:04;0.33;;;0.33;;
12141;SDS011;6134;59.284;18.022;2024-01-16T02:47:33;0.60;;;0.50;;
12141;SDS011;6134;59.284;18.022;2024-01-16T02:50:05;0.40;;;0.40;;
12141;SDS011;6134;59.284;18.022;2024-01-16T02:52:36;0.93;;;0.70;;
12141;SDS011;6134;59.284;18.022;2024-01-16T02:55:06;0.33;;;0.33;;
12141;SDS011;6134;59.284;18.022;2024-01-16T02:57:36;0.70;;;0.57;;
12141;SDS011;6134;59.284;18.022;2024-01-16T03:00:05;0.30;;;0.30;;
12141;SDS011;6134;59.284;18.022;2024-01-16T03:02:35;4.83;;;0.57;;
12141;SDS011;6134;59.284;18.022;2024-01-16T03:05:04;0.40;;;0.40;;
12141;SDS011;6134;59.284;18.022;2024-01-16T03:07:33;0.30;;;0.30;;
12141;SDS011;6134;59.284;18.022;2024-01-16T03:10:02;0.60;;;0.60;;
12141;SDS011;6134;59.284;18.022;2024-01-16T03:12:31;1.93;;;0.70;;
12141;SDS011;6134;59.284;18.022;2024-01-16T03:15:02;0.97;;;0.60;;
12141;SDS011;6134;59.284;18.022;2024-01-16T03:17:30;0.30;;;0.30;;
12141;SDS011;6134;59.284;18.022;2024-01-16T03:19:59;0.40;;;0.30;;
12141;SDS011;6134;59.284;18.022;2024-01-16T03:22:29;0.40;;;0.40;;
12141;SDS011;6134;59.284;18.022;2024-01-16T03:24:57;0.60;;;0.60;;
12141;SDS011;6134;59.284;18.022;2024-01-16T03:27:28;0.43;;;0.43;;
12141;SDS011;6134;59.284;18.022;2024-01-16T03:29:57;0.50;;;0.50;;
12141;SDS011;6134;59.284;18.022;2024-01-16T03:32:27;0.40;;;0.40;;
12141;SDS011;6134;59.284;18.022;2024-01-16T03:34:56;0.50;;;0.50;;
12141;SDS011;6134;59.284;18.022;2024-01-16T03:37:24;0.60;;;0.60;;
12141;SDS011;6134;59.284;18.022;2024-01-16T03:39:53;1.80;;;0.40;;
12141;SDS011;6134;59.284;18.022;2024-01-16T03:42:23;0.40;;;0.40;;
12141;SDS011;6134;59.284;18.022;2024-01-16T03:44:53;0.30;;;0.30;;
12141;SDS011;6134;59.284;18.022;2024-01-16T03:47:22;0.30;;;0.30;;
12141;SDS011;6134;59.284;18.022;2024-01-16T03:49:53;0.43;;;0.43;;
12141;SDS011;6134;59.284;18.022;2024-01-16T03:52:23;0.60;;;0.60;;
12141;SDS011;6134;59.284;18.022;2024-01-16T03:54:51;0.30;;;0.30;;
12141;SDS011;6134;59.284;18.022;2024-01-16T03:57:20;0.50;;;0.50;;
12141;SDS011;6134;59.284;18.022;2024-01-16T03:59:48;0.30;;;0.30;;
12141;SDS011;6134;59.284;18.022;2024-01-16T04:02:17;0.40;;;0.40;;
12141;SDS011;6134;59.284;18.022;2024-01-16T04:04:46;0.30;;;0.30;;
12141;SDS011;6134;59.284;18.022;2024-01-16T04:07:16;0.70;;;0.60;;
12141;SDS011;6134;59.284;18.022;2024-01-16T04:09:45;0.63;;;0.40;;
12141;SDS011;6134;59.284;18.022;2024-01-16T04:12:14;0.40;;;0.40;;
12141;SDS011;6134;59.284;18.022;2024-01-16T04:14:43;0.63;;;0.63;;
12141;SDS011;6134;59.284;18.022;2024-01-16T04:17:11;0.33;;;0.33;;
12141;SDS011;6134;59.284;18.022;2024-01-16T04:19:40;0.40;;;0.40;;
12141;SDS011;6134;59.284;18.022;2024-01-16T04:22:09;0.30;;;0.30;;
12141;SDS011;6134;59.284;18.022;2024-01-16T04:24:39;2.63;;;0.47;;
12141;SDS011;6134;59.284;18.022;2024-01-16T04:27:10;2.60;;;0.50;;
12141;SDS011;6134;59.284;18.022;2024-01-16T04:29:39;1.97;;;0.60;;
12141;SDS011;6134;59.284;18.022;2024-01-16T04:32:09;0.30;;;0.30;;
12141;SDS011;6134;59.284;18.022;2024-01-16T04:34:37;0.63;;;0.40;;
12141;SDS011;6134;59.284;18.022;2024-01-16T04:37:06;0.30;;;0.30;;
12141;SDS011;6134;59.284;18.022;2024-01-16T04:39:35;0.40;;;0.40;;
12141;SDS011;6134;59.284;18.022;2024-01-16T04:42:06;1.00;;;0.40;;
12141;SDS011;6134;59.284;18.022;2024-01-16T04:44:35;0.30;;;0.30;;
12141;SDS011;6134;59.284;18.022;2024-01-16T04:47:05;0.60;;;0.60;;
12141;SDS011;6134;59.284;18.022;2024-01-16T04:49:35;0.50;;;0.50;;
12141;SDS011;6134;59.284;18.022;2024-01-16T04:52:04;0.40;;;0.40;;
12141;SDS011;6134;59.284;18.022;2024-01-16T04:54:33;0.43;;;0.40;;
12141;SDS011;6134;59.284;18.022;2024-01-16T04:57:01;0.43;;;0.43;;
12141;SDS011;6134;59.284;18.022;2024-01-16T04:59:32;0.40;;;0.40;;
12141;SDS011;6134;59.284;18.022;2024-01-16T05:02:01;0.67;;;0.33;;
12141;SDS011;6134;59.284;18.022;2024-01-16T05:04:30;0.30;;;0.30;;
12141;SDS011;6134;59.284;18.022;2024-01-16T05:06:59;0.30;;;0.30;;
12141;SDS011;6134;59.284;18.022;2024-01-16T05:09:27;0.63;;;0.43;;
12141;SDS011;6134;59.284;18.022;2024-01-16T05:11:56;0.63;;;0.40;;
12141;SDS011;6134;59.284;18.022;2024-01-16T05:14:25;0.40;;;0.40;;
12141;SDS011;6134;59.284;18.022;2024-01-16T05:16:55;0.57;;;0.40;;
12141;SDS011;6134;59.284;18.022;2024-01-16T05:19:24;0.40;;;0.40;;
12141;SDS011;6134;59.284;18.022;2024-01-16T05:21:53;0.33;;;0.33;;
12141;SDS011;6134;59.284;18.022;2024-01-16T05:24:22;0.60;;;0.50;;
12141;SDS011;6134;59.284;18.022;2024-01-16T05:26:51;0.30;;;0.30;;
12141;SDS011;6134;59.284;18.022;2024-01-16T05:29:21;0.50;;;0.50;;
12141;SDS011;6134;59.284;18.022;2024-01-16T05:31:51;0.40;;;0.40;;
12141;SDS011;6134;59.284;18.022;2024-01-16T05:34:22;1.23;;;0.73;;
12141;SDS011;6134;59.284;18.022;2024-01-16T05:36:51;0.50;;;0.50;;
12141;SDS011;6134;59.284;18.022;2024-01-16T05:39:19;0.50;;;0.50;;
12141;SDS011;6134;59.284;18.022;2024-01-16T05:41:49;0.50;;;0.50;;
12141;SDS011;6134;59.284;18.022;2024-01-16T05:44:18;0.60;;;0.60;;
12141;SDS011;6134;59.284;18.022;2024-01-16T05:46:47;0.40;;;0.40;;
12141;SDS011;6134;59.284;18.022;2024-01-16T05:49:16;0.80;;;0.50;;
12141;SDS011;6134;59.284;18.022;2024-01-16T05:51:47;1.53;;;0.60;;
12141;SDS011;6134;59.284;18.022;2024-01-16T05:54:15;0.57;;;0.53;;
12141;SDS011;6134;59.284;18.022;2024-01-16T05:56:44;0.60;;;0.60;;
12141;SDS011;6134;59.284;18.022;2024-01-16T05:59:13;0.50;;;0.50;;
12141;SDS011;6134;59.284;18.022;2024-01-16T06:01:43;1.03;;;0.57;;
12141;SDS011;6134;59.284;18.022;2024-01-16T06:04:11;0.50;;;0.50;;
12141;SDS011;6134;59.284;18.022;2024-01-16T06:06:40;0.40;;;0.40;;
12141;SDS011;6134;59.284;18.022;2024-01-16T06:09:12;0.60;;;0.60;;
12141;SDS011;6134;59.284;18.022;2024-01-16T06:11:42;0.60;;;0.60;;
12141;SDS011;6134;59.284;18.022;2024-01-16T06:14:10;1.37;;;0.77;;
12141;SDS011;6134;59.284;18.022;2024-01-16T06:16:39;0.40;;;0.40;;
12141;SDS011;6134;59.284;18.022;2024-01-16T06:19:08;0.27;;;0.27;;
12141;SDS011;6134;59.284;18.022;2024-01-16T06:21:37;0.47;;;0.40;;
12141;SDS011;6134;59.284;18.022;2024-01-16T06:24:06;1.23;;;0.70;;
12141;SDS011;6134;59.284;18.022;2024-01-16T06:26:37;0.70;;;0.40;;
12141;SDS011;6134;59.284;18.022;2024-01-16T06:29:06;0.73;;;0.50;;
12141;SDS011;6134;59.284;18.022;2024-01-16T06:31:51;0.40;;;0.40;;
12141;SDS011;6134;59.284;18.022;2024-01-16T06:34:20;0.90;;;0.60;;
12141;SDS011;6134;59.284;18.022;2024-01-16T06:36:50;1.20;;;0.70;;
12141;SDS011;6134;59.284;18.022;2024-01-16T06:39:20;2.63;;;0.70;;
12141;SDS011;6134;59.284;18.022;2024-01-16T06:41:51;1.37;;;1.07;;
12141;SDS011;6134;59.284;18.022;2024-01-16T06:44:21;0.50;;;0.50;;
12141;SDS011;6134;59.284;18.022;2024-01-16T06:46:50;1.20;;;1.10;;
12141;SDS011;6134;59.284;18.022;2024-01-16T06:49:19;2.10;;;1.10;;
12141;SDS011;6134;59.284;18.022;2024-01-16T06:51:47;1.00;;;0.90;;
12141;SDS011;6134;59.284;18.022;2024-01-16T06:54:16;0.70;;;0.60;;
12141;SDS011;6134;59.284;18.022;2024-01-16T06:56:46;0.73;;;0.73;;
12141;SDS011;6134;59.284;18.022;2024-01-16T06:59:18;0.50;;;0.50;;
12141;SDS011;6134;59.284;18.022;2024-01-16T07:01:48;1.07;;;0.77;;
12141;SDS011;6134;59.284;18.022;2024-01-16T07:04:18;1.33;;;0.83;;
12141;SDS011;6134;59.284;18.022;2024-01-16T07:06:47;1.83;;;0.70;;
12141;SDS011;6134;59.284;18.022;2024-01-16T07:09:15;0.40;;;0.40;;
12141;SDS011;6134;59.284;18.022;2024-01-16T07:11:47;1.13;;;0.60;;
12141;SDS011;6134;59.284;18.022;2024-01-16T07:14:16;0.60;;;0.60;;
12141;SDS011;6134;59.284;18.022;2024-01-16T07:16:46;0.57;;;0.50;;
12141;SDS011;6134;59.284;18.022;2024-01-16T07:19:16;3.90;;;0.97;;
12141;SDS011;6134;59.284;18.022;2024-01-16T07:21:45;1.93;;;0.60;;
12141;SDS011;6134;59.284;18.022;2024-01-16T07:24:15;0.57;;;0.57;;
12141;SDS011;6134;59.284;18.022;2024-01-16T07:26:43;0.50;;;0.50;;
12141;SDS011;6134;59.284;18.022;2024-01-16T07:29:12;0.67;;;0.60;;
12141;SDS011;6134;59.284;18.022;2024-01-16T07:31:41;0.93;;;0.90;;
12141;SDS011;6134;59.284;18.022;2024-01-16T07:34:11;0.70;;;0.50;;
12141;SDS011;6134;59.284;18.022;2024-01-16T07:36:46;0.93;;;0.60;;
12141;SDS011;6134;59.284;18.022;2024-01-16T07:39:15;0.83;;;0.60;;
12141;SDS011;6134;59.284;18.022;2024-01-16T07:41:44;0.83;;;0.60;;
12141;SDS011;6134;59.284;18.022;2024-01-16T07:44:13;2.00;;;0.93;;
12141;SDS011;6134;59.284;18.022;2024-01-16T07:46:42;6.90;;;0.80;;
12141;SDS011;6134;59.284;18.022;2024-01-16T07:49:12;0.70;;;0.70;;
12141;SDS011;6134;59.284;18.022;2024-01-16T07:51:41;1.00;;;0.70;;
12141;SDS011;6134;59.284;18.022;2024-01-16T07:54:10;0.87;;;0.70;;
12141;SDS011;6134;59.284;18.022;2024-01-16T07:56:40;2.43;;;1.13;;
12141;SDS011;6134;59.284;18.022;2024-01-16T07:59:10;1.60;;;0.90;;
12141;SDS011;6134;59.284;18.022;2024-01-16T08:01:38;1.83;;;0.90;;
12141;SDS011;6134;59.284;18.022;2024-01-16T08:04:08;0.73;;;0.50;;
12141;SDS011;6134;59.284;18.022;2024-01-16T08:06:39;1.33;;;0.60;;
12141;SDS011;6134;59.284;18.022;2024-01-16T08:09:08;0.67;;;0.67;;
12141;SDS011;6134;59.284;18.022;2024-01-16T08:11:38;1.80;;;0.67;;
12141;SDS011;6134;59.284;18.022;2024-01-16T08:14:07;1.10;;;0.60;;
12141;SDS011;6134;59.284;18.022;2024-01-16T08:16:36;0.67;;;0.63;;
12141;SDS011;6134;59.284;18.022;2024-01-16T08:19:04;1.00;;;0.50;;
12141;SDS011;6134;59.284;18.022;2024-01-16T08:21:34;0.40;;;0.40;;
12141;SDS011;6134;59.284;18.022;2024-01-16T08:24:04;0.50;;;0.50;;
12141;SDS011;6134;59.284;18.022;2024-01-16T08:26:33;0.60;;;0.60;;
12141;SDS011;6134;59.284;18.022;2024-01-16T08:29:03;0.83;;;0.83;;
12141;SDS011;6134;59.284;18.022;2024-01-16T08:31:32;1.43;;;0.80;;
12141;SDS011;6134;59.284;18.022;2024-01-16T08:34:01;0.97;;;0.50;;
12141;SDS011;6134;59.284;18.022;2024-01-16T08:36:30;0.93;;;0.80;;
12141;SDS011;6134;59.284;18.022;2024-01-16T08:38:59;0.97;;;0.63;;
12141;SDS011;6134;59.284;18.022;2024-01-16T08:41:30;1.23;;;0.83;;
12141;SDS011;6134;59.284;18.022;2024-01-16T08:43:59;1.13;;;0.93;;
12141;SDS011;6134;59.284;18.022;2024-01-16T08:46:27;1.60;;;1.00;;
12141;SDS011;6134;59.284;18.022;2024-01-16T08:48:56;1.07;;;0.87;;
12141;SDS011;6134;59.284;18.022;2024-01-16T08:51:25;1.00;;;0.90;;
12141;SDS011;6134;59.284;18.022;2024-01-16T08:53:54;1.53;;;1.43;;
12141;SDS011;6134;59.284;18.022;2024-01-16T08:56:23;1.10;;;1.00;;
12141;SDS011;6134;59.284;18.022;2024-01-16T08:58:54;1.10;;;0.83;;
12141;SDS011;6134;59.284;18.022;2024-01-16T09:01:23;0.90;;;0.80;;
12141;SDS011;6134;59.284;18.022;2024-01-16T09:03:52;1.20;;;1.10;;
12141;SDS011;6134;59.284;18.022;2024-01-16T09:06:21;1.00;;;0.90;;
12141;SDS011;6134;59.284;18.022;2024-01-16T09:08:51;3.27;;;1.17;;
12141;SDS011;6134;59.284;18.022;2024-01-16T09:11:19;2.13;;;1.60;;
12141;SDS011;6134;59.284;18.022;2024-01-16T09:13:48;1.73;;;1.03;;
12141;SDS011;6134;59.284;18.022;2024-01-16T09:16:19;0.83;;;0.83;;
12141;SDS011;6134;59.284;18.022;2024-01-16T09:18:48;1.30;;;1.20;;
12141;SDS011;6134;59.284;18.022;2024-01-16T09:21:17;1.13;;;1.00;;
12141;SDS011;6134;59.284;18.022;2024-01-16T09:23:45;1.33;;;1.00;;
12141;SDS011;6134;59.284;18.022;2024-01-16T09:26:14;1.73;;;0.73;;
12141;SDS011;6134;59.284;18.022;2024-01-16T09:28:43;2.80;;;1.20;;
12141;SDS011;6134;59.284;18.022;2024-01-16T09:31:12;1.33;;;0.80;;
12141;SDS011;6134;59.284;18.022;2024-01-16T09:33:42;0.80;;;0.80;;
12141;SDS011;6134;59.284;18.022;2024-01-16T09:36:13;0.93;;;0.83;;
12141;SDS011;6134;59.284;18.022;2024-01-16T09:38:42;1.37;;;1.00;;
12141;SDS011;6134;59.284;18.022;2024-01-16T09:41:11;0.80;;;0.80;;
12141;SDS011;6134;59.284;18.022;2024-01-16T09:43:42;0.67;;;0.67;;
12141;SDS011;6134;59.284;18.022;2024-01-16T09:46:12;1.43;;;1.03;;
12141;SDS011;6134;59.284;18.022;2024-01-16T09:48:45;2.00;;;1.20;;
12141;SDS011;6134;59.284;18.022;2024-01-16T09:51:14;0.90;;;0.90;;
12141;SDS011;6134;59.284;18.022;2024-01-16T09:53:43;2.53;;;1.23;;
12141;SDS011;6134;59.284;18.022;2024-01-16T09:56:13;1.17;;;0.80;;
12141;SDS011;6134;59.284;18.022;2024-01-16T09:58:43;2.37;;;1.00;;
12141;SDS011;6134;59.284;18.022;2024-01-16T10:01:12;2.47;;;1.37;;
12141;SDS011;6134;59.284;18.022;2024-01-16T10:03:42;1.43;;;1.17;;
12141;SDS011;6134;59.284;18.022;2024-01-16T10:06:14;1.67;;;1.20;;
12141;SDS011;6134;59.284;18.022;2024-01-16T10:08:44;1.93;;;0.77;;
12141;SDS011;6134;59.284;18.022;2024-01-16T10:11:12;0.77;;;0.77;;
12141;SDS011;6134;59.284;18.022;2024-01-16T10:13:41;2.17;;;0.87;;
12141;SDS011;6134;59.284;18.022;2024-01-16T10:16:11;0.60;;;0.60;;
12141;SDS011;6134;59.284;18.022;2024-01-16T10:18:40;1.23;;;0.80;;
12141;SDS011;6134;59.284;18.022;2024-01-16T10:21:19;0.60;;;0.60;;
12141;SDS011;6134;59.284;18.022;2024-01-16T10:23:48;1.63;;;0.70;;
12141;SDS011;6134;59.284;18.022;2024-01-16T10:26:18;1.47;;;0.87;;
12141;SDS011;6134;59.284;18.022;2024-01-16T10:28:49;1.17;;;1.07;;
12141;SDS011;6134;59.284;18.022;2024-01-16T10:31:18;2.22;;;1.05;;
12141;SDS011;6134;59.284;18.022;2024-01-16T10:33:47;0.90;;;0.73;;
12141;SDS011;6134;59.284;18.022;2024-01-16T10:36:17;1.43;;;0.87;;
12141;SDS011;6134;59.284;18.022;2024-01-16T10:38:48;1.37;;;1.00;;
12141;SDS011;6134;59.284;18.022;2024-01-16T10:41:24;1.45;;;1.10;;
12141;SDS011;6134;59.284;18.022;2024-01-16T10:46:47;0.88;;;0.80;;
12141;SDS011;6134;59.284;18.022;2024-01-16T10:49:16;0.83;;;0.80;;
12141;SDS011;6134;59.284;18.022;2024-01-16T10:51:46;2.37;;;1.00;;
12141;SDS011;6134;59.284;18.022;2024-01-16T10:54:16;1.15;;;0.90;;
12141;SDS011;6134;59.284;18.022;2024-01-16T10:56:46;1.60;;;1.02;;
12141;SDS011;6134;59.284;18.022;2024-01-16T10:59:18;1.53;;;0.80;;
12141;SDS011;6134;59.284;18.022;2024-01-16T11:01:48;2.30;;;0.80;;
12141;SDS011;6134;59.284;18.022;2024-01-16T11:04:18;3.40;;;0.90;;
12141;SDS011;6134;59.284;18.022;2024-01-16T11:06:50;3.00;;;1.20;;
12141;SDS011;6134;59.284;18.022;2024-01-16T11:09:20;6.53;;;1.20;;
12141;SDS011;6134;59.284;18.022;2024-01-16T11:11:49;1.20;;;0.90;;
12141;SDS011;6134;59.284;18.022;2024-01-16T11:14:18;1.13;;;0.80;;
12141;SDS011;6134;59.284;18.022;2024-01-16T11:16:50;1.90;;;1.07;;
12141;SDS011;6134;59.284;18.022;2024-01-16T11:19:19;1.93;;;1.03;;
12141;SDS011;6134;59.284;18.022;2024-01-16T11:21:53;3.38;;;1.10;;
12141;SDS011;6134;59.284;18.022;2024-01-16T11:24:22;2.03;;;1.10;;
12141;SDS011;6134;59.284;18.022;2024-01-16T11:26:51;2.40;;;1.10;;
12141;SDS011;6134;59.284;18.022;2024-01-16T11:29:35;2.72;;;1.52;;
12141;SDS011;6134;59.284;18.022;2024-01-16T11:32:07;1.67;;;1.27;;
12141;SDS011;6134;59.284;18.022;2024-01-16T11:34:53;3.08;;;1.45;;
12141;SDS011;6134;59.284;18.022;2024-01-16T11:37:27;0.98;;;0.88;;
12141;SDS011;6134;59.284;18.022;2024-01-16T11:42:48;0.73;;;0.70;;
12141;SDS011;6134;59.284;18.022;2024-01-16T11:48:10;1.25;;;1.08;;
12141;SDS011;6134;59.284;18.022;2024-01-16T11:50:40;1.20;;;1.00;;
12141;SDS011;6134;59.284;18.022;2024-01-16T11:53:10;1.65;;;1.15;;
12141;SDS011;6134;59.284;18.022;2024-01-16T11:55:42;1.60;;;1.10;;
12141;SDS011;6134;59.284;18.022;2024-01-16T11:58:25;2.80;;;1.10;;
12141;SDS011;6134;59.284;18.022;2024-01-16T12:00:55;3.33;;;1.13;;
12141;SDS011;6134;59.284;18.022;2024-01-16T12:03:24;0.63;;;0.63;;
12141;SDS011;6134;59.284;18.022;2024-01-16T12:06:01;1.43;;;1.00;;
12141;SDS011;6134;59.284;18.022;2024-01-16T12:08:35;1.63;;;0.87;;
12141;SDS011;6134;59.284;18.022;2024-01-16T12:11:04;1.55;;;0.88;;
12141;SDS011;6134;59.284;18.022;2024-01-16T12:13:32;0.80;;;0.80;;
12141;SDS011;6134;59.284;18.022;2024-01-16T12:16:01;1.02;;;0.88;;
12141;SDS011;6134;59.284;18.022;2024-01-16T12:18:31;1.80;;;1.00;;
12141;SDS011;6134;59.284;18.022;2024-01-16T12:21:11;1.85;;;0.70;;
12141;SDS011;6134;59.284;18.022;2024-01-16T12:23:42;0.77;;;0.73;;
12141;SDS011;6134;59.284;18.022;2024-01-16T12:26:25;1.37;;;0.77;;
12141;SDS011;6134;59.284;18.022;2024-01-16T12:28:54;2.00;;;0.73;;
12141;SDS011;6134;59.284;18.022;2024-01-16T12:31:26;2.20;;;1.27;;
12141;SDS011;6134;59.284;18.022;2024-01-16T12:34:04;4.57;;;0.70;;
12141;SDS011;6134;59.284;18.022;2024-01-16T12:36:34;2.27;;;0.83;;
12141;SDS011;6134;59.284;18.022;2024-01-16T12:39:05;1.13;;;0.88;;
12141;SDS011;6134;59.284;18.022;2024-01-16T12:41:40;0.63;;;0.60;;
12141;SDS011;6134;59.284;18.022;2024-01-16T12:44:10;1.73;;;0.70;;
12141;SDS011;6134;59.284;18.022;2024-01-16T12:46:43;2.87;;;0.70;;
12141;SDS011;6134;59.284;18.022;2024-01-16T12:49:13;0.80;;;0.65;;
12141;SDS011;6134;59.284;18.022;2024-01-16T12:51:42;1.02;;;0.80;;
12141;SDS011;6134;59.284;18.022;2024-01-16T12:54:13;1.20;;;0.90;;
12141;SDS011;6134;59.284;18.022;2024-01-16T12:56:43;0.95;;;0.93;;
12141;SDS011;6134;59.284;18.022;2024-01-16T12:59:13;1.17;;;0.73;;
12141;SDS011;6134;59.284;18.022;2024-01-16T13:01:42;3.07;;;1.03;;
12141;SDS011;6134;59.284;18.022;2024-01-16T13:04:13;2.10;;;0.60;;
12141;SDS011;6134;59.284;18.022;2024-01-16T13:06:46;0.73;;;0.70;;
12141;SDS011;6134;59.284;18.022;2024-01-16T13:09:17;1.23;;;0.70;;
12141;SDS011;6134;59.284;18.022;2024-01-16T13:11:49;1.08;;;0.80;;
12141;SDS011;6134;59.284;18.022;2024-01-16T13:14:19;1.20;;;0.80;;
12141;SDS011;6134;59.284;18.022;2024-01-16T13:16:49;1.53;;;0.63;;
12141;SDS011;6134;59.284;18.022;2024-01-16T13:19:18;1.90;;;1.03;;
12141;SDS011;6134;59.284;18.022;2024-01-16T13:21:47;0.87;;;0.50;;
12141;SDS011;6134;59.284;18.022;2024-01-16T13:24:19;0.83;;;0.70;;
12141;SDS011;6134;59.284;18.022;2024-01-16T13:26:51;0.50;;;0.40;;
12141;SDS011;6134;59.284;18.022;2024-01-16T13:29:24;0.97;;;0.87;;
12141;SDS011;6134;59.284;18.022;2024-01-16T13:31:53;1.60;;;0.83;;
12141;SDS011;6134;59.284;18.022;2024-01-16T13:34:22;0.80;;;0.60;;
12141;SDS011;6134;59.284;18.022;2024-01-16T13:36:52;1.33;;;0.80;;
12141;SDS011;6134;59.284;18.022;2024-01-16T13:39:43;0.50;;;0.50;;
12141;SDS011;6134;59.284;18.022;2024-01-16T13:42:13;0.87;;;0.67;;
12141;SDS011;6134;59.284;18.022;2024-01-16T13:44:45;0.50;;;0.50;;
12141;SDS011;6134;59.284;18.022;2024-01-16T13:47:15;2.17;;;0.77;;
12141;SDS011;6134;59.284;18.022;2024-01-16T13:49:48;1.07;;;0.80;;
12141;SDS011;6134;59.284;18.022;2024-01-16T13:52:18;0.87;;;0.70;;
12141;SDS011;6134;59.284;18.022;2024-01-16T13:54:52;0.60;;;0.60;;
12141;SDS011;6134;59.284;18.022;2024-01-16T13:57:22;1.73;;;1.00;;
12141;SDS011;6134;59.284;18.022;2024-01-16T13:59:51;1.13;;;1.03;;
12141;SDS011;6134;59.284;18.022;2024-01-16T14:02:20;1.13;;;0.60;;
12141;SDS011;6134;59.284;18.022;2024-01-16T14:04:48;2.35;;;0.70;;
12141;SDS011;6134;59.284;18.022;2024-01-16T14:07:18;1.63;;;0.83;;
12141;SDS011;6134;59.284;18.022;2024-01-16T14:09:47;1.13;;;0.80;;
12141;SDS011;6134;59.284;18.022;2024-01-16T14:12:17;1.13;;;0.80;;
12141;SDS011;6134;59.284;18.022;2024-01-16T14:14:46;1.40;;;0.83;;
12141;SDS011;6134;59.284;18.022;2024-01-16T14:17:15;5.93;;;0.97;;
12141;SDS011;6134;59.284;18.022;2024-01-16T14:19:44;1.23;;;0.80;;
12141;SDS011;6134;59.284;18.022;2024-01-16T14:22:13;3.03;;;1.37;;
12141;SDS011;6134;59.284;18.022;2024-01-16T14:24:41;5.30;;;1.00;;
12141;SDS011;6134;59.284;18.022;2024-01-16T14:27:13;2.20;;;0.80;;
12141;SDS011;6134;59.284;18.022;2024-01-16T14:29:43;1.55;;;0.95;;
12141;SDS011;6134;59.284;18.022;2024-01-16T14:32:13;1.97;;;1.30;;
12141;SDS011;6134;59.284;18.022;2024-01-16T14:34:42;1.83;;;1.07;;
12141;SDS011;6134;59.284;18.022;2024-01-16T14:37:11;1.63;;;1.00;;
12141;SDS011;6134;59.284;18.022;2024-01-16T14:39:40;0.80;;;0.80;;
12141;SDS011;6134;59.284;18.022;2024-01-16T14:42:09;1.90;;;1.00;;
12141;SDS011;6134;59.284;18.022;2024-01-16T14:44:39;2.07;;;1.20;;
12141;SDS011;6134;59.284;18.022;2024-01-16T14:47:10;3.93;;;1.20;;
12141;SDS011;6134;59.284;18.022;2024-01-16T14:49:40;2.53;;;1.40;;
12141;SDS011;6134;59.284;18.022;2024-01-16T14:52:09;2.70;;;1.35;;
12141;SDS011;6134;59.284;18.022;2024-01-16T14:54:39;2.00;;;1.30;;
12141;SDS011;6134;59.284;18.022;2024-01-16T14:57:08;2.00;;;1.60;;
12141;SDS011;6134;59.284;18.022;2024-01-16T14:59:38;2.80;;;1.50;;
12141;SDS011;6134;59.284;18.022;2024-01-16T15:02:07;2.00;;;1.17;;
12141;SDS011;6134;59.284;18.022;2024-01-16T15:04:41;1.90;;;1.40;;
12141;SDS011;6134;59.284;18.022;2024-01-16T15:07:13;3.57;;;1.40;;
12141;SDS011;6134;59.284;18.022;2024-01-16T15:09:42;2.57;;;1.67;;
12141;SDS011;6134;59.284;18.022;2024-01-16T15:12:11;2.20;;;1.20;;